createdAt,value
2022-11-19T00:01:04.761Z,3.70
2022-11-19T00:04:08.472Z,3.17
2022-11-19T00:07:11.664Z,3.65
2022-11-19T00:10:15.856Z,4.60
2022-11-19T00:13:19.493Z,4.10
2022-11-19T00:16:22.898Z,4.50
2022-11-19T00:19:26.011Z,4.25
2022-11-19T00:22:29.751Z,4.30
2022-11-19T00:25:32.873Z,4.17
2022-11-19T00:28:36.311Z,3.33
2022-11-19T00:31:40.451Z,3.25
2022-11-19T00:34:43.596Z,3.10
2022-11-19T00:37:47.316Z,4.00
2022-11-19T00:40:50.740Z,4.47
2022-11-19T00:43:55.144Z,4.90
2022-11-19T00:46:58.492Z,3.45
2022-11-19T00:50:01.527Z,3.15
2022-11-19T00:53:04.489Z,3.28
2022-11-19T00:56:12.256Z,3.93
2022-11-19T00:59:16.026Z,3.50
2022-11-19T01:02:19.970Z,3.55
2022-11-19T01:05:24.072Z,3.45
2022-11-19T01:08:27.568Z,2.95
2022-11-19T01:11:33.364Z,2.80
2022-11-19T01:14:37.074Z,2.55
2022-11-19T01:17:41.455Z,4.20
2022-11-19T01:20:45.547Z,2.22
2022-11-19T01:23:49.440Z,3.08
2022-11-19T01:26:53.151Z,2.20
2022-11-19T01:29:57.661Z,3.03
2022-11-19T01:33:01.579Z,2.60
2022-11-19T01:36:09.295Z,2.63
2022-11-19T01:39:12.797Z,2.30
2022-11-19T01:42:54.798Z,2.27
2022-11-19T01:45:57.825Z,2.78
2022-11-19T01:49:18.108Z,3.10
2022-11-19T01:52:23.466Z,4.00
2022-11-19T01:55:28.834Z,2.55
2022-11-19T01:58:40.567Z,4.83
2022-11-19T02:01:45.464Z,2.67
2022-11-19T02:04:52.313Z,1.20
2022-11-19T02:07:58.968Z,1.70
2022-11-19T02:11:39.595Z,1.70
2022-11-19T02:15:11.850Z,2.07
2022-11-19T02:18:51.627Z,1.38
2022-11-19T02:22:20.022Z,0.95
2022-11-19T02:25:42.271Z,1.42
2022-11-19T02:28:50.592Z,2.13
2022-11-19T02:31:58.762Z,1.40
2022-11-19T02:35:13.806Z,1.85
2022-11-19T02:38:27.774Z,1.75
2022-11-19T02:42:00.512Z,2.00
2022-11-19T02:45:20.294Z,2.05
2022-11-19T02:48:47.327Z,1.63
2022-11-19T02:51:51.658Z,1.02
2022-11-19T02:54:54.744Z,1.20
2022-11-19T02:58:06.808Z,1.40
2022-11-19T03:01:28.654Z,1.55
2022-11-19T03:04:33.705Z,1.60
2022-11-19T03:07:36.815Z,1.67
2022-11-19T03:11:00.197Z,1.88
2022-11-19T03:14:44.623Z,1.33
2022-11-19T03:18:09.160Z,2.03
2022-11-19T03:21:22.492Z,1.80
2022-11-19T03:24:34.102Z,2.22
2022-11-19T03:27:46.363Z,3.22
2022-11-19T03:30:51.479Z,3.88
2022-11-19T03:33:59.032Z,5.80
2022-11-19T03:37:06.066Z,2.20
2022-11-19T03:40:12.299Z,1.27
2022-11-19T03:43:21.436Z,1.95
2022-11-19T03:46:27.251Z,1.45
2022-11-19T03:49:36.187Z,2.92
2022-11-19T03:52:39.265Z,2.80
2022-11-19T03:55:57.227Z,1.58
2022-11-19T03:59:00.711Z,2.45
2022-11-19T04:02:07.999Z,1.80
2022-11-19T04:05:11.787Z,1.90
2022-11-19T04:08:15.351Z,2.07
2022-11-19T04:14:21.006Z,1.55
2022-11-19T04:17:24.812Z,1.38
2022-11-19T04:20:28.853Z,1.60
2022-11-19T04:23:32.589Z,1.10
2022-11-19T04:26:36.606Z,1.95
2022-11-19T04:29:39.529Z,1.73
2022-11-19T04:32:44.382Z,2.50
2022-11-19T04:35:48.156Z,2.78
2022-11-19T04:38:52.506Z,3.80
2022-11-19T04:41:56.291Z,3.65
2022-11-19T04:45:00.770Z,3.92
2022-11-19T04:48:04.790Z,2.20
2022-11-19T04:51:08.175Z,3.53
2022-11-19T04:54:11.483Z,2.73
2022-11-19T04:57:15.066Z,2.60
2022-11-19T05:00:18.605Z,1.63
2022-11-19T05:03:22.632Z,2.38
2022-11-19T05:06:26.380Z,2.55
2022-11-19T05:09:30.473Z,1.10
2022-11-19T05:12:34.191Z,0.90
2022-11-19T05:15:38.519Z,1.63
2022-11-19T05:18:42.240Z,0.80
2022-11-19T05:21:45.431Z,1.20
2022-11-19T05:24:48.726Z,1.30
2022-11-19T05:27:53.042Z,4.95
2022-11-19T05:30:58.547Z,2.55
2022-11-19T05:34:02.398Z,1.85
2022-11-19T05:37:07.100Z,2.47
2022-11-19T05:40:10.780Z,2.60
2022-11-19T05:43:14.152Z,2.67
2022-11-19T05:46:17.222Z,2.33
2022-11-19T05:49:21.370Z,3.00
2022-11-19T05:52:25.791Z,2.80
2022-11-19T05:55:29.502Z,1.83
2022-11-19T05:58:33.223Z,2.25
2022-11-19T06:01:36.300Z,1.50
2022-11-19T06:04:40.553Z,2.05
2022-11-19T06:07:43.646Z,1.55
2022-11-19T06:10:47.637Z,2.60
2022-11-19T06:13:51.118Z,3.28
2022-11-19T06:16:59.805Z,3.15
2022-11-19T06:20:02.904Z,2.72
2022-11-19T06:23:05.861Z,2.70
2022-11-19T06:26:09.936Z,2.50
2022-11-19T06:29:15.617Z,3.10
2022-11-19T06:32:19.239Z,1.95
2022-11-19T06:35:23.146Z,2.47
2022-11-19T06:38:26.964Z,2.00
2022-11-19T06:41:30.910Z,1.50
2022-11-19T06:44:34.622Z,1.30
2022-11-19T06:47:40.394Z,1.65
2022-11-19T06:50:46.302Z,2.00
2022-11-19T06:53:50.311Z,2.75
2022-11-19T06:56:53.588Z,4.10
2022-11-19T06:59:57.820Z,3.55
2022-11-19T07:03:01.275Z,3.53
2022-11-19T07:06:06.523Z,3.30
2022-11-19T07:09:10.070Z,2.85
2022-11-19T07:12:14.188Z,4.40
2022-11-19T07:15:17.829Z,3.70
2022-11-19T07:18:21.369Z,2.15
2022-11-19T07:21:25.765Z,2.45
2022-11-19T07:24:29.300Z,3.13
2022-11-19T07:27:32.336Z,2.27
2022-11-19T07:30:36.161Z,3.80
2022-11-19T07:33:40.098Z,2.92
2022-11-19T07:36:45.083Z,3.70
2022-11-19T07:39:48.058Z,3.42
2022-11-19T07:42:54.135Z,2.73
2022-11-19T07:45:57.809Z,4.72
2022-11-19T07:49:01.603Z,3.28
2022-11-19T07:52:05.632Z,3.45
2022-11-19T07:55:09.862Z,4.82
2022-11-19T07:58:13.988Z,4.50
2022-11-19T08:01:20.285Z,4.80
2022-11-19T08:04:23.543Z,8.10
2022-11-19T08:07:27.823Z,2.83
2022-11-19T08:10:31.977Z,3.58
2022-11-19T08:13:37.540Z,3.80
2022-11-19T08:16:59.035Z,4.53
2022-11-19T08:20:02.999Z,5.47
2022-11-19T08:23:06.322Z,4.60
2022-11-19T08:26:10.048Z,4.05
2022-11-19T08:29:16.792Z,5.50
2022-11-19T08:32:21.111Z,4.20
2022-11-19T08:35:25.760Z,3.53
2022-11-19T08:38:30.740Z,3.13
2022-11-19T08:41:53.387Z,3.70
2022-11-19T08:44:56.411Z,3.73
2022-11-19T08:48:01.964Z,4.35
2022-11-19T08:51:10.980Z,6.22
2022-11-19T08:54:14.733Z,5.10
2022-11-19T08:57:18.727Z,6.10
2022-11-19T09:00:23.192Z,8.07
2022-11-19T09:03:26.879Z,9.02
2022-11-19T09:06:30.591Z,11.40
2022-11-19T09:09:34.440Z,8.25
2022-11-19T09:12:38.597Z,7.00
2022-11-19T09:15:42.687Z,9.17
2022-11-19T09:18:46.002Z,12.80
2022-11-19T09:21:50.337Z,13.00
2022-11-19T09:24:54.050Z,13.85
2022-11-19T09:27:57.505Z,10.63
2022-11-19T09:31:04.480Z,13.07
2022-11-19T09:34:08.129Z,18.30
2022-11-19T09:37:11.488Z,13.48
2022-11-19T09:40:22.139Z,9.65
2022-11-19T09:43:49.876Z,10.32
2022-11-19T09:47:14.159Z,9.67
2022-11-19T09:50:22.158Z,9.40
2022-11-19T09:53:31.218Z,8.90
2022-11-19T09:56:44.434Z,10.65
2022-11-19T09:59:50.839Z,11.23
2022-11-19T10:02:55.692Z,10.37
2022-11-19T10:06:20.393Z,10.00
2022-11-19T10:09:30.041Z,10.75
2022-11-19T10:12:48.830Z,10.07
2022-11-19T10:15:58.318Z,12.30
2022-11-19T10:19:30.689Z,10.47
2022-11-19T10:22:34.696Z,10.93
2022-11-19T10:25:48.221Z,10.48
2022-11-19T10:28:59.272Z,12.45
2022-11-19T10:32:21.884Z,10.98
2022-11-19T10:35:35.151Z,9.77
2022-11-19T10:38:57.899Z,11.35
2022-11-19T10:42:09.954Z,10.68
2022-11-19T10:45:29.233Z,10.32
2022-11-19T10:48:44.183Z,13.73
2022-11-19T10:51:48.294Z,9.47
2022-11-19T10:54:55.669Z,9.95
2022-11-19T10:58:17.624Z,10.20
2022-11-19T11:01:32.885Z,8.88
2022-11-19T11:05:02.614Z,8.45
2022-11-19T11:08:12.333Z,14.03
2022-11-19T11:11:51.742Z,9.68
2022-11-19T11:15:01.754Z,10.38
2022-11-19T11:18:11.525Z,14.32
2022-11-19T11:21:32.590Z,12.65
2022-11-19T11:24:40.079Z,14.50
2022-11-19T11:27:43.970Z,13.93
2022-11-19T11:30:57.994Z,11.98
2022-11-19T11:34:03.429Z,11.68
2022-11-19T11:37:10.322Z,12.75
2022-11-19T11:40:21.875Z,13.63
2022-11-19T11:43:27.674Z,11.95
2022-11-19T11:46:59.539Z,16.40
2022-11-19T11:50:08.495Z,13.98
2022-11-19T11:53:11.968Z,14.57
2022-11-19T11:56:22.231Z,11.23
2022-11-19T11:59:32.008Z,10.57
2022-11-19T12:02:36.381Z,9.60
2022-11-19T12:05:49.264Z,10.52
2022-11-19T12:09:20.038Z,9.27
2022-11-19T12:12:37.662Z,10.03
2022-11-19T12:16:25.811Z,9.57
2022-11-19T12:19:36.233Z,13.68
2022-11-19T12:22:39.124Z,22.27
2022-11-19T12:26:03.681Z,20.05
2022-11-19T12:29:30.988Z,21.17
2022-11-19T12:32:56.549Z,21.80
2022-11-19T12:36:08.142Z,21.60
2022-11-19T12:39:11.994Z,20.30
2022-11-19T12:42:50.569Z,18.50
2022-11-19T12:46:10.107Z,17.23
2022-11-19T12:49:32.358Z,18.13
2022-11-19T12:53:09.415Z,16.05
2022-11-19T12:56:28.059Z,16.80
2022-11-19T12:59:34.540Z,15.57
2022-11-19T13:02:54.157Z,15.30
2022-11-19T13:06:08.212Z,13.35
2022-11-19T13:09:35.523Z,9.40
2022-11-19T13:12:44.673Z,8.65
2022-11-19T13:15:57.941Z,10.45
2022-11-19T13:19:29.947Z,9.23
2022-11-19T13:22:37.143Z,7.18
2022-11-19T13:25:45.447Z,8.43
2022-11-19T13:29:22.566Z,6.88
2022-11-19T13:32:29.063Z,6.20
2022-11-19T13:35:45.432Z,5.97
2022-11-19T13:39:04.467Z,9.70
2022-11-19T13:42:28.611Z,10.75
2022-11-19T13:45:33.235Z,8.50
2022-11-19T13:48:43.697Z,9.32
2022-11-19T13:51:55.465Z,7.50
2022-11-19T13:55:00.717Z,6.95
2022-11-19T13:58:27.770Z,6.93
2022-11-19T14:01:43.607Z,6.30
2022-11-19T14:05:10.942Z,6.55
2022-11-19T14:08:25.705Z,5.85
2022-11-19T14:12:02.592Z,5.22
2022-11-19T14:15:43.941Z,5.07
2022-11-19T14:19:10.841Z,4.70
2022-11-19T14:22:54.506Z,4.23
2022-11-19T14:26:15.565Z,4.72
2022-11-19T14:29:19.424Z,5.65
2022-11-19T14:32:36.848Z,3.78
2022-11-19T14:35:41.058Z,4.28
2022-11-19T14:38:52.280Z,4.67
2022-11-19T14:42:16.243Z,3.85
2022-11-19T14:45:21.051Z,4.45
2022-11-19T14:48:25.008Z,5.47
2022-11-19T14:51:38.787Z,4.77
2022-11-19T14:54:45.988Z,4.40
2022-11-19T14:58:05.832Z,5.30
2022-11-19T15:01:20.658Z,5.43
2022-11-19T15:04:31.476Z,5.07
2022-11-19T15:07:39.116Z,6.10
2022-11-19T15:11:06.148Z,5.22
2022-11-19T15:14:38.431Z,5.90
2022-11-19T15:17:44.947Z,6.53
2022-11-19T15:21:24.646Z,6.85
2022-11-19T15:24:44.270Z,6.70
2022-11-19T15:28:08.994Z,6.90
2022-11-19T15:31:25.473Z,8.18
2022-11-19T15:35:11.778Z,6.90
2022-11-19T15:38:30.742Z,5.80
2022-11-19T15:41:39.870Z,6.05
2022-11-19T15:44:52.023Z,5.88
2022-11-19T15:48:13.480Z,5.97
2022-11-19T15:51:19.005Z,6.88
2022-11-19T15:54:28.974Z,7.03
2022-11-19T15:57:33.032Z,7.90
2022-11-19T16:00:46.430Z,6.90
2022-11-19T16:03:53.234Z,5.82
2022-11-19T16:06:57.488Z,5.93
2022-11-19T16:10:02.004Z,8.82
2022-11-19T16:13:40.575Z,8.50
2022-11-19T16:17:02.866Z,7.72
2022-11-19T16:20:19.649Z,6.68
2022-11-19T16:23:26.046Z,4.77
2022-11-19T16:26:29.883Z,5.55
2022-11-19T16:29:40.378Z,3.83
2022-11-19T16:32:44.931Z,4.20
2022-11-19T16:35:53.298Z,4.93
2022-11-19T16:38:57.835Z,4.75
2022-11-19T16:42:18.209Z,4.32
2022-11-19T16:45:26.051Z,6.38
2022-11-19T16:48:51.403Z,5.87
2022-11-19T16:51:55.574Z,6.88
2022-11-19T16:54:59.260Z,7.95
2022-11-19T16:58:14.466Z,5.22
2022-11-19T17:01:20.187Z,7.17
2022-11-19T17:04:32.459Z,5.90
2022-11-19T17:07:36.332Z,4.97
2022-11-19T17:10:40.031Z,5.85
2022-11-19T17:13:43.065Z,5.73
2022-11-19T17:16:48.561Z,5.95
2022-11-19T17:19:51.646Z,6.45
2022-11-19T17:22:57.136Z,5.75
2022-11-19T17:26:10.295Z,8.57
2022-11-19T17:29:21.329Z,5.57
2022-11-19T17:32:24.588Z,3.58
2022-11-19T17:35:38.576Z,3.30
2022-11-19T17:38:42.439Z,3.10
2022-11-19T17:42:05.264Z,3.33
2022-11-19T17:45:10.957Z,3.30
2022-11-19T17:48:24.017Z,4.22
2022-11-19T17:51:27.766Z,3.90
2022-11-19T17:54:33.049Z,4.40
2022-11-19T17:57:42.211Z,2.55
2022-11-19T18:00:46.540Z,2.83
2022-11-19T18:03:50.297Z,3.60
2022-11-19T18:06:53.871Z,3.28
2022-11-19T18:09:57.868Z,2.72
2022-11-19T18:13:02.113Z,3.05
2022-11-19T18:16:19.947Z,2.30
2022-11-19T18:19:27.010Z,2.67
2022-11-19T18:22:30.650Z,2.88
2022-11-19T18:25:34.368Z,4.93
2022-11-19T18:28:39.127Z,3.23
2022-11-19T18:31:49.058Z,3.33
2022-11-19T18:34:52.960Z,3.25
2022-11-19T18:37:56.585Z,3.47
2022-11-19T18:40:59.518Z,2.70
2022-11-19T18:44:21.917Z,3.03
2022-11-19T18:47:26.868Z,2.20
2022-11-19T18:50:31.205Z,1.42
2022-11-19T18:53:34.545Z,2.00
2022-11-19T18:56:38.156Z,1.02
2022-11-19T18:59:42.263Z,2.03
2022-11-19T19:02:45.583Z,1.20
2022-11-19T19:05:49.397Z,1.27
2022-11-19T19:08:53.392Z,1.55
2022-11-19T19:12:14.826Z,1.92
2022-11-19T19:15:18.922Z,1.95
2022-11-19T19:18:22.646Z,2.25
2022-11-19T19:21:26.471Z,1.50
2022-11-19T19:24:31.906Z,2.07
2022-11-19T19:27:36.232Z,1.50
2022-11-19T19:30:39.973Z,1.73
2022-11-19T19:33:43.391Z,1.42
2022-11-19T19:36:53.001Z,2.00
2022-11-19T19:39:56.802Z,1.98
2022-11-19T19:43:03.693Z,2.65
2022-11-19T19:46:10.804Z,2.28
2022-11-19T19:49:14.341Z,1.70
2022-11-19T19:52:18.380Z,2.03
2022-11-19T19:55:22.020Z,2.03
2022-11-19T19:58:28.088Z,2.05
2022-11-19T20:01:36.588Z,2.67
2022-11-19T20:04:41.066Z,1.45
2022-11-19T20:07:44.086Z,1.35
2022-11-19T20:10:47.121Z,2.00
2022-11-19T20:13:50.435Z,1.67
2022-11-19T20:16:53.399Z,2.10
2022-11-19T20:19:57.166Z,2.10
2022-11-19T20:23:00.755Z,1.85
2022-11-19T20:26:11.200Z,1.77
2022-11-19T20:29:15.135Z,1.85
2022-11-19T20:32:19.167Z,1.23
2022-11-19T20:35:22.863Z,1.40
2022-11-19T20:38:26.603Z,1.53
2022-11-19T20:41:48.763Z,2.03
2022-11-19T20:44:52.189Z,1.85
2022-11-19T20:47:55.854Z,1.88
2022-11-19T20:50:59.904Z,2.90
2022-11-19T20:54:03.904Z,1.85
2022-11-19T20:57:06.982Z,1.42
2022-11-19T21:00:10.676Z,2.30
2022-11-19T21:03:14.437Z,1.60
2022-11-19T21:06:18.390Z,1.48
2022-11-19T21:09:22.533Z,1.60
2022-11-19T21:12:25.680Z,2.75
2022-11-19T21:15:36.824Z,1.83
2022-11-19T21:18:43.183Z,1.27
2022-11-19T21:21:46.528Z,1.88
2022-11-19T21:24:49.901Z,1.45
2022-11-19T21:27:54.565Z,1.70
2022-11-19T21:30:58.202Z,1.60
2022-11-19T21:34:02.323Z,2.40
2022-11-19T21:37:06.026Z,2.05
2022-11-19T21:40:09.865Z,2.70
2022-11-19T21:43:13.597Z,2.30
2022-11-19T21:46:17.484Z,2.65
2022-11-19T21:49:20.908Z,2.38
2022-11-19T21:52:24.464Z,2.50
2022-11-19T21:55:27.431Z,2.58
2022-11-19T21:58:31.121Z,2.83
2022-11-19T22:01:35.410Z,2.42
2022-11-19T22:04:39.898Z,2.50
2022-11-19T22:07:44.020Z,2.47
2022-11-19T22:10:49.913Z,2.75
2022-11-19T22:13:54.229Z,2.55
2022-11-19T22:16:58.673Z,2.13
2022-11-19T22:20:01.981Z,1.80
2022-11-19T22:23:07.138Z,1.65
2022-11-19T22:26:12.464Z,2.42
2022-11-19T22:29:15.841Z,3.17
2022-11-19T22:32:18.860Z,4.40
2022-11-19T22:35:22.817Z,2.88
2022-11-19T22:38:26.559Z,3.45
2022-11-19T22:41:30.593Z,2.53
2022-11-19T22:44:33.557Z,3.78
2022-11-19T22:47:37.608Z,2.88
2022-11-19T22:50:42.368Z,3.03
2022-11-19T22:53:46.334Z,3.90
2022-11-19T22:56:49.978Z,4.43
2022-11-19T22:59:54.150Z,2.83
2022-11-19T23:02:57.984Z,2.75
2022-11-19T23:06:01.210Z,3.47
2022-11-19T23:09:07.124Z,2.70
2022-11-19T23:12:29.629Z,2.65
2022-11-19T23:15:32.773Z,2.72
2022-11-19T23:18:39.280Z,2.67
2022-11-19T23:21:42.613Z,2.65
2022-11-19T23:24:46.500Z,1.85
2022-11-19T23:27:49.538Z,3.78
2022-11-19T23:30:53.230Z,2.35
2022-11-19T23:33:59.261Z,2.63
2022-11-19T23:37:03.444Z,2.60
2022-11-19T23:40:07.120Z,1.47
2022-11-19T23:43:10.546Z,2.10
2022-11-19T23:46:34.610Z,2.63
2022-11-19T23:49:37.977Z,2.28
2022-11-19T23:52:40.956Z,3.13
2022-11-19T23:55:51.324Z,2.85
2022-11-19T23:58:55.082Z,1.83
